Time;durP1;ratioP1;P1;durP2;ratioP2;P2;SDS_P1;SDS_P2;PMS_P1;PMS_P2;Temp;Humidity;BMP_temperature;BMP_pressure;BME280_temperature;BME280_humidity;BME280_pressure;Samples;Min_cycle;Max_cycle;Signal;HPM_P1;HPM_P2
2021/08/24 00:02:01;;;;;;;3.70;1.90;;;;;;;12.60;100.00;102013.69;5039296;28;20226;-81
2021/08/24 00:04:29;;;;;;;2.93;1.90;;;;;;;12.51;100.00;102012.47;5002761;28;20216;-80
2021/08/24 00:06:55;;;;;;;2.90;2.00;;;;;;;12.37;100.00;102016.66;5036255;28;20236;-80
2021/08/24 00:09:20;;;;;;;2.27;2.07;;;;;;;12.52;100.00;102016.88;5029417;28;20187;-81
2021/08/24 00:11:50;;;;;;;3.20;1.90;;;;;;;12.54;100.00;102012.00;5042092;28;20219;-80
2021/08/24 00:14:16;;;;;;;5.00;1.97;;;;;;;12.48;100.00;102007.56;5039168;28;20262;-80
2021/08/24 00:16:41;;;;;;;3.50;1.80;;;;;;;12.37;100.00;102011.22;5030341;28;20220;-80
2021/08/24 00:19:10;;;;;;;2.30;2.10;;;;;;;12.41;100.00;102012.34;5075839;28;20209;-81
2021/08/24 00:21:37;;;;;;;3.70;2.00;;;;;;;12.38;100.00;102002.78;5060225;28;20214;-80
2021/08/24 00:24:05;;;;;;;2.27;2.07;;;;;;;12.48;100.00;102002.09;5026512;28;20290;-80
2021/08/24 00:26:33;;;;;;;2.93;2.00;;;;;;;12.47;100.00;102001.28;5037275;28;20239;-80
2021/08/24 00:28:59;;;;;;;3.07;2.40;;;;;;;12.45;100.00;102008.03;5041700;28;20184;-80
2021/08/24 00:31:25;;;;;;;2.77;1.90;;;;;;;12.45;100.00;102008.03;5024573;28;20226;-80
2021/08/24 00:33:51;;;;;;;3.70;2.00;;;;;;;12.39;100.00;102009.06;5053519;28;20204;-80
2021/08/24 00:36:19;;;;;;;2.00;1.80;;;;;;;12.37;100.00;102011.22;5036040;28;20231;-79
2021/08/24 00:38:45;;;;;;;2.33;2.00;;;;;;;12.35;100.00;102007.91;5055692;28;20184;-80
2021/08/24 00:41:11;;;;;;;3.40;2.13;;;;;;;12.39;100.00;102006.34;5073034;28;20604;-80
2021/08/24 00:43:44;;;;;;;2.13;1.90;;;;;;;12.31;100.00;102009.50;5071561;28;20663;-80
2021/08/24 00:46:18;;;;;;;3.03;1.70;;;;;;;12.29;100.00;102014.38;5058745;28;20224;-80
2021/08/24 00:48:48;;;;;;;2.27;1.93;;;;;;;12.15;100.00;102018.50;5047760;28;20189;-80
2021/08/24 00:51:14;;;;;;;2.80;1.80;;;;;;;12.04;100.00;102026.78;5038780;28;20306;-81
2021/08/24 00:53:42;;;;;;;2.20;2.00;;;;;;;12.05;100.00;102021.09;5019197;28;20179;-80
2021/08/24 00:56:10;;;;;;;2.30;1.80;;;;;;;12.06;100.00;102019.19;5035145;28;20224;-81
2021/08/24 00:58:40;;;;;;;3.83;1.77;;;;;;;11.91;100.00;102021.66;5024925;28;20207;-81
2021/08/24 01:01:06;;;;;;;2.67;1.60;;;;;;;11.97;100.00;102024.19;5039959;28;20220;-81
2021/08/24 01:03:39;;;;;;;4.10;2.00;;;;;;;11.89;100.00;102026.53;5054109;28;20746;-80
2021/08/24 01:06:21;;;;;;;3.73;2.00;;;;;;;11.91;100.00;102022.47;5022067;28;20729;-80
2021/08/24 01:08:58;;;;;;;2.00;1.80;;;;;;;11.73;100.00;102024.63;5034917;28;20184;-81
2021/08/24 01:11:28;;;;;;;2.33;1.60;;;;;;;11.71;100.00;102032.22;5035277;28;20227;-80
2021/08/24 01:14:04;;;;;;;2.17;1.83;;;;;;;11.77;100.00;102035.84;5022602;28;20227;-80
2021/08/24 01:16:39;;;;;;;4.70;1.67;;;;;;;11.69;100.00;102028.09;5080520;28;20298;-80
2021/08/24 01:19:41;;;;;;;2.70;1.93;;;;;;;11.85;100.00;102027.25;5031040;28;20693;-80
2021/08/24 01:22:44;;;;;;;2.17;1.90;;;;;;;11.86;100.00;102029.72;5018650;28;20230;-80
2021/08/24 01:25:17;;;;;;;6.23;1.97;;;;;;;11.66;100.00;102034.81;5024984;28;20214;-80
2021/08/24 01:27:51;;;;;;;3.30;1.90;;;;;;;11.67;100.00;102036.50;5067471;28;20203;-81
2021/08/24 01:30:38;;;;;;;2.27;2.07;;;;;;;11.59;100.00;102044.22;5061552;28;20179;-79
2021/08/24 01:33:20;;;;;;;1.83;1.70;;;;;;;11.64;100.00;102041.59;5074875;28;20269;-78
2021/08/24 01:36:06;;;;;;;2.20;1.53;;;;;;;11.49;100.00;102038.59;5065066;28;20235;-81
2021/08/24 01:38:37;;;;;;;3.27;1.80;;;;;;;11.45;100.00;102032.00;5047086;28;20238;-80
2021/08/24 01:41:08;;;;;;;1.70;1.60;;;;;;;11.40;100.00;102033.78;5035660;28;20219;-80
2021/08/24 01:43:48;;;;;;;2.30;1.73;;;;;;;11.44;100.00;102032.22;5020389;28;20219;-80
2021/08/24 01:46:38;;;;;;;3.23;2.03;;;;;;;11.34;100.00;102049.19;5017527;28;20248;-80
2021/08/24 01:49:11;;;;;;;2.87;1.83;;;;;;;11.30;100.00;102044.44;5052222;28;20239;-81
2021/08/24 01:51:45;;;;;;;3.50;1.90;;;;;;;11.28;100.00;102039.28;5022379;28;20238;-81
2021/08/24 01:54:21;;;;;;;3.93;2.07;;;;;;;11.40;100.00;102039.22;5038370;28;20199;-82
2021/08/24 01:56:51;;;;;;;3.00;2.13;;;;;;;11.28;100.00;102044.72;5049192;28;20305;-80
2021/08/24 01:59:20;;;;;;;2.80;2.00;;;;;;;11.20;100.00;102045.09;5051467;28;20243;-81
2021/08/24 02:02:01;;;;;;;2.70;1.93;;;;;;;11.30;100.00;102034.41;5037204;28;20219;-80
2021/08/24 02:04:30;;;;;;;2.20;2.00;;;;;;;11.28;100.00;102042.00;5022914;28;20203;-80
2021/08/24 02:06:57;;;;;;;5.57;2.23;;;;;;;11.34;100.00;102035.56;5029079;28;20228;-79
2021/08/24 02:09:29;;;;;;;1.83;1.73;;;;;;;11.32;100.00;102037.72;5034338;28;20179;-80
2021/08/24 02:11:59;;;;;;;4.20;2.00;;;;;;;11.22;100.00;102042.94;5021437;28;20227;-80
2021/08/24 02:14:25;;;;;;;2.33;1.97;;;;;;;11.19;100.00;102054.31;5021565;28;20235;-80
2021/08/24 02:16:53;;;;;;;2.07;1.87;;;;;;;11.14;100.00;102056.94;5030984;28;20611;-81
2021/08/24 02:19:32;;;;;;;3.97;2.10;;;;;;;11.22;100.00;102053.81;5037127;28;20172;-81
2021/08/24 02:22:00;;;;;;;2.23;2.00;;;;;;;11.18;100.00;102052.66;5036910;28;20223;-80
2021/08/24 02:24:33;;;;;;;3.47;2.27;;;;;;;11.13;100.00;102049.88;5021299;28;20222;-79
2021/08/24 02:27:02;;;;;;;2.70;2.30;;;;;;;11.18;100.00;102049.94;5021533;28;20223;-80
2021/08/24 02:29:28;;;;;;;2.90;2.30;;;;;;;11.18;100.00;102052.66;5037579;28;20191;-79
2021/08/24 02:32:00;;;;;;;3.33;2.17;;;;;;;11.24;100.00;102053.59;5037126;28;20278;-79
2021/08/24 02:34:49;;;;;;;3.43;2.30;;;;;;;11.21;100.00;102048.66;5021071;28;20298;-81
2021/08/24 02:37:35;;;;;;;3.73;2.40;;;;;;;11.27;100.00;102051.22;5033859;28;20224;-81
2021/08/24 02:40:10;;;;;;;2.53;2.30;;;;;;;11.22;100.00;102059.25;5035421;28;20191;-80
2021/08/24 02:42:44;;;;;;;3.13;2.30;;;;;;;11.31;100.00;102060.53;5034774;28;20224;-80
2021/08/24 02:45:12;;;;;;;2.37;2.03;;;;;;;11.22;100.00;102061.16;5021858;28;20203;-79
2021/08/24 02:47:40;;;;;;;3.90;2.30;;;;;;;11.18;100.00;102063.53;5041645;28;20187;-80
2021/08/24 02:50:07;;;;;;;2.57;2.00;;;;;;;11.12;100.00;102062.84;5024756;28;20254;-80
2021/08/24 02:52:35;;;;;;;2.70;1.90;;;;;;;11.17;100.00;102059.19;5041271;28;20189;-80
2021/08/24 02:55:05;;;;;;;2.80;1.90;;;;;;;11.18;100.00;102060.00;5025710;28;20559;-79
2021/08/24 02:57:31;;;;;;;2.17;1.83;;;;;;;11.33;100.00;102061.13;5071871;28;20231;-80
2021/08/24 02:59:56;;;;;;;2.57;2.37;;;;;;;11.33;100.00;102054.84;5054032;28;20187;-81
2021/08/24 03:02:23;;;;;;;2.87;2.03;;;;;;;11.36;100.00;102055.19;5041367;28;20231;-81
2021/08/24 03:04:51;;;;;;;2.53;2.33;;;;;;;11.38;100.00;102061.22;5059022;28;20293;-81
2021/08/24 03:07:26;;;;;;;2.77;2.20;;;;;;;11.36;100.00;102060.63;5082804;28;20216;-81
2021/08/24 03:09:52;;;;;;;4.93;2.37;;;;;;;11.24;100.00;102069.91;5025830;28;20287;-81
2021/08/24 03:12:24;;;;;;;2.67;2.40;;;;;;;11.31;100.00;102063.25;5024155;28;20262;-79
2021/08/24 03:14:52;;;;;;;3.00;2.13;;;;;;;11.20;100.00;102072.28;5041299;28;20223;-81
2021/08/24 03:17:34;;;;;;;3.43;2.20;;;;;;;11.14;100.00;102073.25;5047162;28;20226;-80
2021/08/24 03:20:04;;;;;;;2.60;1.93;;;;;;;11.05;100.00;102083.94;5025099;28;20230;-82
2021/08/24 03:22:34;;;;;;;4.50;2.17;;;;;;;10.93;100.00;102077.69;5020363;28;20209;-80
2021/08/24 03:24:59;;;;;;;2.50;2.30;;;;;;;10.95;100.00;102072.81;5038182;28;20208;-82
2021/08/24 03:27:27;;;;;;;2.93;1.93;;;;;;;11.04;100.00;102085.00;5054714;28;20706;-81
2021/08/24 03:30:02;;;;;;;2.50;2.30;;;;;;;10.99;100.00;102069.41;5024738;28;20210;-79
2021/08/24 03:32:32;;;;;;;3.83;2.17;;;;;;;10.94;100.00;102063.03;5021220;28;20265;-81
2021/08/24 03:35:00;;;;;;;2.47;2.00;;;;;;;10.99;100.00;102084.88;5022138;28;20681;-80
2021/08/24 03:37:25;;;;;;;3.10;2.23;;;;;;;10.96;100.00;102077.22;5020972;28;20212;-81
2021/08/24 03:39:51;;;;;;;4.07;2.53;;;;;;;10.88;100.00;102078.41;5038171;28;20194;-81
2021/08/24 03:42:16;;;;;;;2.07;1.87;;;;;;;10.82;100.00;102081.25;5020384;28;20599;-80
2021/08/24 03:44:43;;;;;;;3.10;2.10;;;;;;;10.81;100.00;102088.59;5037720;28;20204;-81
2021/08/24 03:47:13;;;;;;;2.30;2.10;;;;;;;10.72;100.00;102082.94;5079437;28;20242;-78
2021/08/24 03:49:41;;;;;;;4.33;2.00;;;;;;;10.87;100.00;102092.25;5025458;28;20187;-79
2021/08/24 03:52:07;;;;;;;3.10;1.90;;;;;;;10.89;100.00;102090.09;5024134;28;20693;-80
2021/08/24 03:54:35;;;;;;;3.50;2.10;;;;;;;10.99;100.00;102095.75;5074405;28;20196;-81
2021/08/24 03:57:05;;;;;;;2.87;2.30;;;;;;;10.90;100.00;102091.78;5041521;28;20637;-80
2021/08/24 03:59:36;;;;;;;2.63;2.10;;;;;;;10.96;100.00;102088.09;5020431;28;20271;-81
2021/08/24 04:02:05;;;;;;;2.23;1.93;;;;;;;10.98;100.00;102099.56;5040618;28;20283;-80
2021/08/24 04:04:31;;;;;;;5.40;3.10;;;;;;;11.00;100.00;102094.69;5074239;28;20187;-79
2021/08/24 04:06:57;;;;;;;2.53;2.00;;;;;;;10.93;100.00;102102.16;5029657;28;20294;-81
2021/08/24 04:09:23;;;;;;;2.20;2.00;;;;;;;10.86;100.00;102106.88;5060224;28;20187;-81
2021/08/24 04:11:51;;;;;;;3.00;2.00;;;;;;;10.81;100.00;102106.78;5034295;28;20232;-80
2021/08/24 04:14:17;;;;;;;1.80;1.70;;;;;;;10.83;100.00;102112.81;5037072;28;20211;-81
2021/08/24 04:16:45;;;;;;;2.30;1.93;;;;;;;10.78;100.00;102107.25;5073183;28;20728;-79
2021/08/24 04:19:13;;;;;;;2.73;2.17;;;;;;;10.76;100.00;102118.34;5033609;28;20191;-81
2021/08/24 04:21:42;;;;;;;1.93;1.80;;;;;;;10.81;100.00;102123.91;5039363;28;20211;-81
2021/08/24 04:24:10;;;;;;;2.23;2.03;;;;;;;10.75;100.00;102126.78;5024392;28;20290;-81
2021/08/24 04:26:38;;;;;;;2.87;2.20;;;;;;;10.79;100.00;102127.94;5041038;28;20218;-80
2021/08/24 04:29:08;;;;;;;2.17;1.97;;;;;;;10.82;100.00;102125.59;5073372;28;20179;-79
2021/08/24 04:31:38;;;;;;;4.07;2.20;;;;;;;10.98;100.00;102130.28;5031176;28;20763;-80
2021/08/24 04:34:05;;;;;;;2.70;2.10;;;;;;;11.13;100.00;102119.72;5034055;28;20200;-79
2021/08/24 04:36:31;;;;;;;4.20;2.30;;;;;;;11.24;100.00;102121.59;5072257;28;20778;-79
2021/08/24 04:39:01;;;;;;;3.40;2.00;;;;;;;11.11;100.00;102129.19;5004985;28;20234;-81
2021/08/24 04:41:31;;;;;;;2.20;2.00;;;;;;;11.09;100.00;102131.31;5021036;28;20765;-81
2021/08/24 04:43:57;;;;;;;2.53;2.10;;;;;;;11.11;100.00;102131.91;5037286;28;20315;-80
2021/08/24 04:46:25;;;;;;;2.73;1.87;;;;;;;11.10;100.00;102127.53;5053042;28;20713;-82
2021/08/24 04:48:53;;;;;;;2.97;2.00;;;;;;;11.01;100.00;102131.72;5068744;28;20210;-80
2021/08/24 04:51:18;;;;;;;2.20;2.00;;;;;;;10.99;100.00;102128.38;5023299;28;20231;-83
2021/08/24 04:53:46;;;;;;;1.97;1.70;;;;;;;11.22;100.00;102124.53;5026765;28;20194;-80
2021/08/24 04:56:11;;;;;;;2.97;2.03;;;;;;;11.40;100.00;102127.09;5055398;28;20223;-80
2021/08/24 04:58:38;;;;;;;2.83;1.90;;;;;;;11.46;100.00;102128.88;5020188;28;20279;-81
2021/08/24 05:01:03;;;;;;;2.07;1.87;;;;;;;11.38;100.00;102126.50;5026472;28;20272;-80
2021/08/24 05:03:31;;;;;;;1.93;1.83;;;;;;;11.36;100.00;102127.84;5036392;28;20186;-80
2021/08/24 05:06:01;;;;;;;3.20;1.90;;;;;;;11.38;100.00;102134.69;5039193;28;20327;-80
2021/08/24 05:08:31;;;;;;;3.40;1.63;;;;;;;11.41;100.00;102136.94;5038865;28;20247;-80
2021/08/24 05:10:58;;;;;;;3.27;1.80;;;;;;;11.43;100.00;102132.06;5038615;28;20231;-80
2021/08/24 05:13:29;;;;;;;1.70;1.60;;;;;;;11.41;100.00;102139.66;5036094;28;20192;-79
2021/08/24 05:15:58;;;;;;;2.30;2.10;;;;;;;11.54;100.00;102139.41;5075034;28;20234;-80
2021/08/24 05:18:24;;;;;;;5.07;2.13;;;;;;;11.66;100.00;102134.72;5025183;28;20195;-81
2021/08/24 05:21:00;;;;;;;2.10;1.90;;;;;;;11.69;100.00;102136.97;5031672;28;20218;-79
2021/08/24 05:23:26;;;;;;;3.00;2.30;;;;;;;11.84;100.00;102135.34;5042288;28;20187;-79
2021/08/24 05:25:54;;;;;;;1.90;1.80;;;;;;;11.87;100.00;102129.41;5039101;28;20215;-81
2021/08/24 05:28:22;;;;;;;2.00;1.80;;;;;;;12.09;100.00;102138.53;5023712;28;20646;-80
2021/08/24 05:30:49;;;;;;;2.30;2.10;;;;;;;12.17;100.00;102133.50;5025514;28;20256;-80
2021/08/24 05:33:19;;;;;;;2.30;2.10;;;;;;;12.26;100.00;102140.19;5062265;28;20199;-83
2021/08/24 05:35:47;;;;;;;3.03;2.20;;;;;;;12.23;100.00;102137.13;5023230;28;20247;-81
2021/08/24 05:38:18;;;;;;;3.93;2.10;;;;;;;12.20;100.00;102143.91;5023708;28;20237;-80
2021/08/24 05:40:46;;;;;;;3.17;2.13;;;;;;;12.44;100.00;102138.06;5055987;28;20211;-79
2021/08/24 05:43:18;;;;;;;2.63;2.07;;;;;;;12.54;100.00;102140.91;5072472;28;20183;-80
2021/08/24 05:46:02;;;;;;;2.70;1.90;;;;;;;12.68;100.00;102138.69;5040155;28;20227;-82
2021/08/24 05:48:28;;;;;;;3.07;2.20;;;;;;;12.66;100.00;102135.41;5027050;28;20195;-80
2021/08/24 05:50:54;;;;;;;4.93;2.10;;;;;;;12.81;100.00;102141.94;5055412;28;20302;-82
2021/08/24 05:53:25;;;;;;;2.97;2.40;;;;;;;12.88;100.00;102148.84;5052697;28;20207;-80
2021/08/24 05:55:53;;;;;;;2.73;2.50;;;;;;;13.02;100.00;102154.75;5002054;28;20232;-81
2021/08/24 05:58:19;;;;;;;3.70;2.03;;;;;;;13.24;100.00;102170.09;5023056;28;20179;-79
2021/08/24 06:00:44;;;;;;;3.30;2.40;;;;;;;13.28;100.00;102174.81;5024684;28;20601;-80
2021/08/24 06:03:15;;;;;;;2.83;2.17;;;;;;;13.26;100.00;102170.66;5032449;28;20781;-80
2021/08/24 06:05:41;;;;;;;3.43;2.40;;;;;;;13.41;100.00;102165.41;5061009;28;20230;-81
2021/08/24 06:08:07;;;;;;;3.73;2.30;;;;;;;13.46;100.00;102172.59;5072620;28;20183;-82
2021/08/24 06:10:38;;;;;;;4.00;2.40;;;;;;;13.59;100.00;102166.75;5042763;28;20227;-81
2021/08/24 06:13:04;;;;;;;4.70;2.40;;;;;;;13.86;100.00;102178.50;5059582;28;20262;-82
2021/08/24 06:15:31;;;;;;;2.63;2.43;;;;;;;13.88;100.00;102176.34;5023158;28;20223;-82
2021/08/24 06:17:58;;;;;;;9.00;3.03;;;;;;;13.99;100.00;102178.09;5035891;28;20248;-82
2021/08/24 06:20:27;;;;;;;2.73;2.20;;;;;;;14.19;100.00;102172.88;5021408;28;20216;-81
2021/08/24 06:22:57;;;;;;;3.33;2.20;;;;;;;14.35;100.00;102172.75;5020545;28;20536;-84
2021/08/24 06:25:22;;;;;;;5.13;2.43;;;;;;;14.51;100.00;102178.09;5039142;28;20246;-78
2021/08/24 06:27:49;;;;;;;4.30;2.30;;;;;;;14.77;100.00;102182.69;5023453;28;20179;-79
2021/08/24 06:30:17;;;;;;;3.23;2.00;;;;;;;14.91;100.00;102178.38;5020484;28;20665;-80
2021/08/24 06:32:48;;;;;;;3.97;2.20;;;;;;;15.06;100.00;102176.59;5083979;28;20177;-81
2021/08/24 06:35:14;;;;;;;3.03;2.00;;;;;;;15.16;100.00;102183.00;5024546;28;20207;-81
2021/08/24 06:37:43;;;;;;;2.37;2.07;;;;;;;15.20;100.00;102178.63;5036196;28;20204;-81
2021/08/24 06:40:14;;;;;;;2.27;1.80;;;;;;;15.36;100.00;102182.28;5016394;28;20180;-81
2021/08/24 06:42:41;;;;;;;2.67;2.00;;;;;;;15.38;100.00;102186.38;5028205;28;20213;-80
2021/08/24 06:45:10;;;;;;;2.40;1.87;;;;;;;15.64;100.00;102185.41;5022261;28;20294;-80
2021/08/24 06:47:39;;;;;;;3.13;2.17;;;;;;;15.79;100.00;102173.41;5022651;28;20180;-81
2021/08/24 06:50:06;;;;;;;3.00;1.90;;;;;;;15.84;100.00;102178.91;5038414;28;20183;-80
2021/08/24 06:52:32;;;;;;;2.17;1.60;;;;;;;16.12;100.00;102172.94;5030756;28;20263;-78
2021/08/24 06:54:57;;;;;;;2.63;1.77;;;;;;;16.13;100.00;102177.31;5047995;28;20479;-79
2021/08/24 06:57:26;;;;;;;2.30;1.40;;;;;;;16.16;100.00;102180.34;5058204;28;20262;-78
2021/08/24 06:59:52;;;;;;;2.47;1.60;;;;;;;16.14;100.00;102181.72;5024451;28;20231;-79
2021/08/24 07:02:18;;;;;;;1.95;1.30;;;;;;;16.11;100.00;102171.28;5071582;28;20219;-78
2021/08/24 07:04:47;;;;;;;1.90;1.30;;;;;;;16.43;100.00;102170.00;5052290;28;20200;-78
2021/08/24 07:07:16;;;;;;;1.52;1.13;;;;;;;16.64;100.00;102171.63;5044093;28;20211;-80
2021/08/24 07:09:44;;;;;;;1.97;1.40;;;;;;;16.66;100.00;102166.69;5071177;28;20179;-78
2021/08/24 07:12:10;;;;;;;2.85;1.02;;;;;;;16.87;100.00;102163.66;5044595;28;20225;-82
2021/08/24 07:14:36;;;;;;;2.07;1.00;;;;;;;16.89;100.00;102169.69;5020239;28;20587;-80
2021/08/24 07:17:02;;;;;;;1.30;1.10;;;;;;;16.81;100.00;102162.03;5050986;28;20306;-77
2021/08/24 07:19:30;;;;;;;1.83;1.10;;;;;;;16.91;100.00;102164.75;5034889;28;20188;-79
2021/08/24 07:21:56;;;;;;;2.15;1.23;;;;;;;16.78;100.00;102173.56;5034158;28;20215;-76
2021/08/24 07:24:21;;;;;;;2.05;1.20;;;;;;;16.96;100.00;102173.00;5019537;28;20708;-80
2021/08/24 07:26:49;;;;;;;2.00;1.30;;;;;;;17.26;100.00;102170.19;5029072;28;20654;-77
2021/08/24 07:29:14;;;;;;;2.33;1.20;;;;;;;17.44;100.00;102173.16;5033419;28;20167;-79
2021/08/24 07:31:40;;;;;;;2.60;1.20;;;;;;;17.50;100.00;102177.53;5031060;28;20265;-79
2021/08/24 07:34:06;;;;;;;3.20;1.25;;;;;;;17.48;100.00;102179.75;5040502;28;20211;-79
2021/08/24 07:36:32;;;;;;;3.35;1.48;;;;;;;17.54;100.00;102184.09;5041154;28;20234;-79
2021/08/24 07:39:01;;;;;;;3.55;1.40;;;;;;;17.20;100.00;102194.13;5043939;28;20195;-80
2021/08/24 07:41:26;;;;;;;3.03;1.35;;;;;;;17.23;100.00;102192.72;5034733;28;20227;-77
2021/08/24 07:43:52;;;;;;;1.75;1.05;;;;;;;17.19;100.00;102192.47;5020648;28;20232;-77
2021/08/24 07:46:22;;;;;;;1.30;1.02;;;;;;;17.45;100.00;102196.78;5051974;28;20239;-76
2021/08/24 07:48:53;;;;;;;2.45;1.20;;;;;;;17.41;100.00;102201.19;5055007;28;20203;-77
2021/08/24 07:51:21;;;;;;;1.10;1.00;;;;;;;17.60;100.00;102182.97;5071476;28;20212;-77
2021/08/24 07:53:51;;;;;;;2.28;1.15;;;;;;;17.88;100.00;102203.19;5064908;28;20183;-78
2021/08/24 07:56:17;;;;;;;2.63;1.42;;;;;;;17.98;100.00;102208.63;5023888;28;20728;-75
2021/08/24 07:58:53;;;;;;;2.17;1.08;;;;;;;17.63;100.00;102216.22;5017358;28;20184;-75
2021/08/24 08:01:21;;;;;;;2.13;0.95;;;;;;;17.97;100.00;102215.25;5038732;28;20296;-76
2021/08/24 08:03:46;;;;;;;1.95;1.10;;;;;;;18.10;100.00;102219.34;5035711;28;20183;-75
2021/08/24 08:06:14;;;;;;;2.20;1.10;;;;;;;18.09;100.00;102214.94;5045733;28;20230;-76
2021/08/24 08:08:40;;;;;;;3.50;1.02;;;;;;;18.01;100.00;102216.34;5035559;28;20213;-76
2021/08/24 08:11:07;;;;;;;2.22;1.23;;;;;;;17.90;100.00;102222.16;5054032;28;20223;-77
2021/08/24 08:13:33;;;;;;;1.60;0.90;;;;;;;18.13;100.00;102216.84;5056778;28;20214;-75
2021/08/24 08:16:00;;;;;;;3.13;1.20;;;;;;;18.29;100.00;102210.97;5048208;28;20662;-74
2021/08/24 08:18:28;;;;;;;1.65;1.00;;;;;;;18.47;100.00;102218.53;5036002;28;20179;-75
2021/08/24 08:20:54;;;;;;;2.85;1.20;;;;;;;18.86;100.00;102211.06;5051625;28;20227;-75
2021/08/24 08:23:26;;;;;;;2.20;1.20;;;;;;;19.11;100.00;102212.50;5036030;28;20188;-76
2021/08/24 08:25:55;;;;;;;2.15;1.10;;;;;;;19.06;100.00;102212.56;5015746;28;20228;-77
2021/08/24 08:28:21;;;;;;;2.72;1.13;;;;;;;19.14;100.00;102217.47;5033327;28;20195;-77
2021/08/24 08:30:47;;;;;;;8.55;1.50;;;;;;;18.97;100.00;102218.97;5037016;28;20211;-77
2021/08/24 08:33:15;;;;;;;2.08;1.20;;;;;;;18.99;100.00;102214.00;5036723;28;20225;-77
2021/08/24 08:35:42;;;;;;;3.13;1.10;;;;;;;19.16;99.88;102220.75;5019001;28;20637;-77
2021/08/24 08:38:10;;;;;;;3.70;1.27;;;;;;;19.39;97.95;102214.41;5049748;28;20189;-76
2021/08/24 08:40:48;;;;;;;2.72;1.13;;;;;;;19.37;94.86;102222.16;5054015;28;20223;-74
2021/08/24 08:43:27;;;;;;;1.13;1.00;;;;;;;19.59;93.01;102222.47;5035326;28;20183;-74
2021/08/24 08:45:52;;;;;;;1.70;1.10;;;;;;;19.55;96.75;102221.41;5053369;28;20239;-72
2021/08/24 08:48:39;;;;;;;1.67;0.90;;;;;;;18.90;89.39;102219.31;5018649;28;20188;-74
2021/08/24 08:51:28;;;;;;;1.50;0.95;;;;;;;18.74;89.26;102227.16;5035523;28;20257;-76
2021/08/24 08:54:21;;;;;;;1.80;1.17;;;;;;;18.97;92.22;102232.75;5014265;28;20767;-76
2021/08/24 08:57:05;;;;;;;1.45;0.90;;;;;;;19.25;88.75;102238.28;5038441;28;20216;-76
2021/08/24 08:59:51;;;;;;;1.50;1.00;;;;;;;19.47;87.14;102227.59;5020760;28;20195;-80
2021/08/24 09:02:21;;;;;;;1.40;0.90;;;;;;;19.16;84.54;102231.75;5044538;28;20214;-77
2021/08/24 09:04:49;;;;;;;1.60;1.00;;;;;;;19.44;82.96;102226.22;5037285;28;20207;-75
2021/08/24 09:07:29;;;;;;;1.10;0.77;;;;;;;19.62;79.98;102233.75;5001277;28;20206;-76
2021/08/24 09:09:59;;;;;;;1.55;0.80;;;;;;;19.82;77.54;102230.78;5030376;28;20196;-75
2021/08/24 09:12:25;;;;;;;1.98;0.90;;;;;;;19.87;75.48;102226.03;5051084;28;20227;-78
2021/08/24 09:14:53;;;;;;;1.13;0.80;;;;;;;19.99;74.65;102231.09;5035867;28;20571;-76
2021/08/24 09:17:31;;;;;;;1.55;0.90;;;;;;;19.57;79.49;102230.22;5034714;28;20732;-75
2021/08/24 09:20:08;;;;;;;2.38;1.13;;;;;;;19.56;79.27;102229.41;5018414;28;20711;-79
2021/08/24 09:22:35;;;;;;;1.13;0.90;;;;;;;19.86;80.88;102229.06;5031842;28;20235;-77
2021/08/24 09:25:03;;;;;;;1.77;0.80;;;;;;;19.95;80.00;102222.59;5016947;28;20212;-80
2021/08/24 09:27:40;;;;;;;1.60;1.05;;;;;;;19.51;78.20;102226.69;5063900;28;20289;-75
2021/08/24 09:30:07;;;;;;;2.35;0.88;;;;;;;19.73;75.99;102225.03;5047827;28;20241;-78
2021/08/24 09:32:32;;;;;;;1.83;0.93;;;;;;;19.46;75.89;102229.50;5024843;28;20196;-78
2021/08/24 09:35:14;;;;;;;2.75;0.88;;;;;;;19.39;80.18;102219.94;5033374;28;20270;-77
2021/08/24 09:37:42;;;;;;;1.55;0.90;;;;;;;19.40;80.40;102221.59;5050984;28;20234;-79
2021/08/24 09:40:11;;;;;;;1.92;0.90;;;;;;;19.43;77.41;102223.75;5037848;28;20186;-75
2021/08/24 09:42:40;;;;;;;1.55;0.95;;;;;;;19.45;73.72;102216.84;5025610;28;20211;-75
2021/08/24 09:45:20;;;;;;;2.00;0.90;;;;;;;19.47;69.03;102208.28;5041003;28;20203;-78
2021/08/24 09:48:05;;;;;;;1.00;0.80;;;;;;;19.64;69.79;102211.38;5039836;28;20234;-76
2021/08/24 09:50:37;;;;;;;2.05;1.27;;;;;;;19.43;62.12;102198.94;5034836;28;20231;-78
2021/08/24 09:53:04;;;;;;;2.17;1.20;;;;;;;19.53;67.34;102207.91;5035683;28;20609;-77
2021/08/24 09:55:30;;;;;;;1.30;1.13;;;;;;;19.97;71.14;102209.31;5032542;28;20231;-78
2021/08/24 09:57:59;;;;;;;2.17;1.10;;;;;;;20.13;70.08;102210.75;5049388;28;20668;-76
2021/08/24 10:00:58;;;;;;;2.35;1.33;;;;;;;20.05;63.84;102210.59;5033291;28;20198;-75
2021/08/24 10:03:32;;;;;;;1.63;1.25;;;;;;;20.24;62.31;102201.22;5041147;28;20183;-74
2021/08/24 10:06:25;;;;;;;1.80;1.52;;;;;;;19.97;58.00;102198.28;5026213;28;20349;-75
2021/08/24 10:08:57;;;;;;;1.65;1.27;;;;;;;20.00;59.41;102208.75;5039994;28;20221;-74
2021/08/24 10:11:30;;;;;;;2.10;1.25;;;;;;;20.26;60.20;102210.84;5050686;28;20296;-74
2021/08/24 10:14:09;;;;;;;1.98;1.40;;;;;;;19.80;60.46;102206.22;5018101;28;20224;-76
2021/08/24 10:16:41;;;;;;;1.33;1.15;;;;;;;19.99;61.65;102207.09;5030366;28;20776;-77
2021/08/24 10:19:17;;;;;;;1.30;1.20;;;;;;;20.34;61.08;102209.34;5017253;28;20653;-77
2021/08/24 10:21:56;;;;;;;1.80;1.33;;;;;;;20.52;58.82;102210.13;5046822;28;20207;-77
2021/08/24 10:24:37;;;;;;;2.65;1.52;;;;;;;20.55;58.81;102212.31;5036094;28;20199;-74
2021/08/24 10:27:04;;;;;;;1.83;1.40;;;;;;;20.72;55.15;102200.75;5014621;28;20214;-75
2021/08/24 10:29:32;;;;;;;2.17;1.40;;;;;;;20.69;57.15;102202.16;5053786;28;20199;-76
2021/08/24 10:32:02;;;;;;;2.88;1.63;;;;;;;20.52;53.79;102201.84;5037817;28;20858;-75
2021/08/24 10:34:42;;;;;;;2.75;1.90;;;;;;;20.77;55.30;102192.34;5037045;28;20204;-77
2021/08/24 10:37:26;;;;;;;3.08;2.28;;;;;;;20.82;52.21;102193.09;5043926;28;20233;-75
2021/08/24 10:39:52;;;;;;;2.20;1.95;;;;;;;21.02;55.82;102181.69;5030449;28;20223;-77
2021/08/24 10:42:27;;;;;;;2.70;2.10;;;;;;;20.93;48.85;102194.56;5032214;28;20220;-78
2021/08/24 10:44:53;;;;;;;3.00;2.20;;;;;;;20.93;49.46;102186.28;5067063;28;20199;-76
2021/08/24 10:47:30;;;;;;;3.10;1.95;;;;;;;21.12;51.31;102184.28;5033532;28;20215;-76
2021/08/24 10:49:59;;;;;;;2.30;2.00;;;;;;;21.17;51.35;102184.16;5014690;28;20626;-75
2021/08/24 10:52:45;;;;;;;2.22;1.98;;;;;;;20.87;50.44;102193.03;5013385;28;20302;-76
2021/08/24 10:55:21;;;;;;;2.25;1.83;;;;;;;21.27;49.75;102168.22;5030712;28;20211;-76
2021/08/24 10:58:11;;;;;;;2.22;2.00;;;;;;;21.46;53.63;102191.91;5013185;28;20739;-74
2021/08/24 11:01:01;;;;;;;2.63;2.08;;;;;;;21.24;49.63;102183.50;5053879;28;20225;-74
2021/08/24 11:03:56;;;;;;;2.75;2.25;;;;;;;21.70;49.70;102187.84;5050003;28;20180;-74
2021/08/24 11:06:48;;;;;;;2.20;2.00;;;;;;;21.76;47.06;102181.06;5057024;28;20212;-74
2021/08/24 11:09:19;;;;;;;2.30;2.10;;;;;;;21.52;48.52;102179.63;5039625;28;20176;-74
2021/08/24 11:12:07;;;;;;;2.58;2.00;;;;;;;20.78;49.61;102186.53;5037392;28;20234;-75
2021/08/24 11:14:38;;;;;;;2.70;1.88;;;;;;;20.93;51.45;102187.13;5034275;28;20216;-79
2021/08/24 11:17:27;;;;;;;1.88;1.70;;;;;;;20.97;52.34;102184.53;5017484;28;20224;-77
2021/08/24 11:20:36;;;;;;;2.72;2.00;;;;;;;20.61;54.26;102189.00;5036156;28;20202;-78
2021/08/24 11:23:30;;;;;;;2.58;1.85;;;;;;;20.79;56.81;102185.44;4999810;28;20227;-76
2021/08/24 11:26:04;;;;;;;1.80;1.60;;;;;;;20.93;57.01;102186.28;5026948;28;20242;-73
2021/08/24 11:28:56;;;;;;;2.67;1.85;;;;;;;21.20;54.20;102191.88;5034867;28;20184;-79
2021/08/24 11:31:24;;;;;;;2.38;1.90;;;;;;;21.23;53.25;102183.78;5036562;28;20223;-77
2021/08/24 11:34:01;;;;;;;2.28;1.85;;;;;;;20.91;52.43;102194.88;5018177;28;20774;-75
2021/08/24 11:36:37;;;;;;;3.35;1.95;;;;;;;21.49;51.28;102184.97;5024630;28;20227;-76
2021/08/24 11:39:16;;;;;;;3.17;1.90;;;;;;;21.85;52.43;102189.44;5035299;28;20195;-75